sensor_id;sensor_type;location;lat;lon;timestamp;P1;durP1;ratioP1;P2;durP2;ratioP2
13408;SDS011;6775;49.574;11.170;2023-05-18T00:02:19;4.37;;;2.07;;
13408;SDS011;6775;49.574;11.170;2023-05-18T00:04:48;3.27;;;1.80;;
13408;SDS011;6775;49.574;11.170;2023-05-18T00:07:16;3.17;;;2.00;;
13408;SDS011;6775;49.574;11.170;2023-05-18T00:09:44;4.60;;;1.83;;
13408;SDS011;6775;49.574;11.170;2023-05-18T00:12:12;5.00;;;2.20;;
13408;SDS011;6775;49.574;11.170;2023-05-18T00:14:40;3.93;;;2.20;;
13408;SDS011;6775;49.574;11.170;2023-05-18T00:17:09;5.97;;;2.30;;
13408;SDS011;6775;49.574;11.170;2023-05-18T00:19:37;4.40;;;2.57;;
13408;SDS011;6775;49.574;11.170;2023-05-18T00:22:05;5.37;;;2.27;;
13408;SDS011;6775;49.574;11.170;2023-05-18T00:24:34;8.33;;;3.10;;
13408;SDS011;6775;49.574;11.170;2023-05-18T00:27:02;7.10;;;4.47;;
13408;SDS011;6775;49.574;11.170;2023-05-18T00:29:30;13.93;;;6.87;;
13408;SDS011;6775;49.574;11.170;2023-05-18T00:31:58;15.73;;;9.63;;
13408;SDS011;6775;49.574;11.170;2023-05-18T00:34:27;25.00;;;14.17;;
13408;SDS011;6775;49.574;11.170;2023-05-18T00:36:55;27.20;;;14.43;;
13408;SDS011;6775;49.574;11.170;2023-05-18T00:39:23;21.73;;;11.30;;
13408;SDS011;6775;49.574;11.170;2023-05-18T00:41:51;16.67;;;9.87;;
13408;SDS011;6775;49.574;11.170;2023-05-18T00:44:20;15.73;;;7.53;;
13408;SDS011;6775;49.574;11.170;2023-05-18T00:46:48;10.63;;;6.40;;
13408;SDS011;6775;49.574;11.170;2023-05-18T00:49:16;12.93;;;6.53;;
13408;SDS011;6775;49.574;11.170;2023-05-18T00:51:45;18.40;;;7.17;;
13408;SDS011;6775;49.574;11.170;2023-05-18T00:54:14;26.73;;;9.67;;
13408;SDS011;6775;49.574;11.170;2023-05-18T00:56:42;22.27;;;9.00;;
13408;SDS011;6775;49.574;11.170;2023-05-18T00:59:11;19.93;;;7.63;;
13408;SDS011;6775;49.574;11.170;2023-05-18T01:01:40;18.77;;;6.03;;
13408;SDS011;6775;49.574;11.170;2023-05-18T01:04:11;12.87;;;5.07;;
13408;SDS011;6775;49.574;11.170;2023-05-18T01:06:41;11.70;;;4.50;;
13408;SDS011;6775;49.574;11.170;2023-05-18T01:09:12;9.67;;;3.93;;
13408;SDS011;6775;49.574;11.170;2023-05-18T01:11:43;6.00;;;4.17;;
13408;SDS011;6775;49.574;11.170;2023-05-18T01:14:22;6.30;;;3.23;;
13408;SDS011;6775;49.574;11.170;2023-05-18T01:16:58;7.47;;;2.90;;
13408;SDS011;6775;49.574;11.170;2023-05-18T01:19:42;5.67;;;3.03;;
13408;SDS011;6775;49.574;11.170;2023-05-18T01:22:31;4.93;;;3.10;;
13408;SDS011;6775;49.574;11.170;2023-05-18T01:25:09;7.80;;;2.90;;
13408;SDS011;6775;49.574;11.170;2023-05-18T01:27:46;17.60;;;5.53;;
13408;SDS011;6775;49.574;11.170;2023-05-18T01:30:15;20.33;;;6.70;;
13408;SDS011;6775;49.574;11.170;2023-05-18T01:32:44;39.90;;;13.87;;
13408;SDS011;6775;49.574;11.170;2023-05-18T01:35:12;52.90;;;16.07;;
13408;SDS011;6775;49.574;11.170;2023-05-18T01:37:40;78.87;;;24.80;;
13408;SDS011;6775;49.574;11.170;2023-05-18T01:40:08;71.80;;;22.23;;
13408;SDS011;6775;49.574;11.170;2023-05-18T01:42:38;75.30;;;22.57;;
13408;SDS011;6775;49.574;11.170;2023-05-18T01:45:14;64.87;;;20.70;;
13408;SDS011;6775;49.574;11.170;2023-05-18T01:47:48;67.37;;;22.83;;
13408;SDS011;6775;49.574;11.170;2023-05-18T01:50:35;75.33;;;24.47;;
13408;SDS011;6775;49.574;11.170;2023-05-18T01:53:07;60.33;;;22.77;;
13408;SDS011;6775;49.574;11.170;2023-05-18T01:55:40;87.23;;;29.73;;
13408;SDS011;6775;49.574;11.170;2023-05-18T01:58:10;85.30;;;27.97;;
13408;SDS011;6775;49.574;11.170;2023-05-18T02:00:41;97.70;;;30.37;;
13408;SDS011;6775;49.574;11.170;2023-05-18T02:03:10;102.03;;;32.63;;
13408;SDS011;6775;49.574;11.170;2023-05-18T02:05:39;110.23;;;32.23;;
13408;SDS011;6775;49.574;11.170;2023-05-18T02:08:07;97.23;;;32.93;;
13408;SDS011;6775;49.574;11.170;2023-05-18T02:10:35;76.40;;;26.67;;
13408;SDS011;6775;49.574;11.170;2023-05-18T02:13:02;65.60;;;23.07;;
13408;SDS011;6775;49.574;11.170;2023-05-18T02:15:30;55.17;;;18.73;;
13408;SDS011;6775;49.574;11.170;2023-05-18T02:17:59;44.07;;;18.53;;
13408;SDS011;6775;49.574;11.170;2023-05-18T02:20:28;48.00;;;16.77;;
13408;SDS011;6775;49.574;11.170;2023-05-18T02:22:58;43.07;;;16.33;;
13408;SDS011;6775;49.574;11.170;2023-05-18T02:25:26;36.93;;;14.87;;
13408;SDS011;6775;49.574;11.170;2023-05-18T02:27:54;34.23;;;12.70;;
13408;SDS011;6775;49.574;11.170;2023-05-18T02:30:22;35.07;;;13.13;;
13408;SDS011;6775;49.574;11.170;2023-05-18T02:32:50;34.77;;;13.27;;
13408;SDS011;6775;49.574;11.170;2023-05-18T02:35:19;27.97;;;10.13;;
13408;SDS011;6775;49.574;11.170;2023-05-18T02:37:47;23.87;;;8.63;;
13408;SDS011;6775;49.574;11.170;2023-05-18T02:40:15;16.40;;;7.13;;
13408;SDS011;6775;49.574;11.170;2023-05-18T02:42:43;23.40;;;9.30;;
13408;SDS011;6775;49.574;11.170;2023-05-18T02:45:11;30.87;;;10.77;;
13408;SDS011;6775;49.574;11.170;2023-05-18T02:47:39;24.50;;;10.43;;
13408;SDS011;6775;49.574;11.170;2023-05-18T02:50:09;24.10;;;9.13;;
13408;SDS011;6775;49.574;11.170;2023-05-18T02:52:38;14.77;;;6.90;;
13408;SDS011;6775;49.574;11.170;2023-05-18T02:55:07;12.33;;;6.00;;
13408;SDS011;6775;49.574;11.170;2023-05-18T02:57:35;10.13;;;4.93;;
13408;SDS011;6775;49.574;11.170;2023-05-18T03:00:03;9.30;;;4.77;;
13408;SDS011;6775;49.574;11.170;2023-05-18T03:02:36;12.10;;;3.87;;
13408;SDS011;6775;49.574;11.170;2023-05-18T03:05:05;10.10;;;5.00;;
13408;SDS011;6775;49.574;11.170;2023-05-18T03:07:34;13.17;;;4.90;;
13408;SDS011;6775;49.574;11.170;2023-05-18T03:10:04;9.63;;;4.67;;
13408;SDS011;6775;49.574;11.170;2023-05-18T03:12:33;10.33;;;4.13;;
13408;SDS011;6775;49.574;11.170;2023-05-18T03:15:00;7.13;;;2.73;;
13408;SDS011;6775;49.574;11.170;2023-05-18T03:17:29;7.50;;;3.40;;
13408;SDS011;6775;49.574;11.170;2023-05-18T03:19:56;8.80;;;3.20;;
13408;SDS011;6775;49.574;11.170;2023-05-18T03:22:24;7.63;;;3.23;;
13408;SDS011;6775;49.574;11.170;2023-05-18T03:24:52;8.13;;;3.50;;
13408;SDS011;6775;49.574;11.170;2023-05-18T03:27:21;8.43;;;3.60;;
13408;SDS011;6775;49.574;11.170;2023-05-18T03:29:51;6.50;;;3.13;;
13408;SDS011;6775;49.574;11.170;2023-05-18T03:32:19;6.00;;;2.87;;
13408;SDS011;6775;49.574;11.170;2023-05-18T03:34:47;7.67;;;2.67;;
13408;SDS011;6775;49.574;11.170;2023-05-18T03:37:16;6.60;;;2.87;;
13408;SDS011;6775;49.574;11.170;2023-05-18T03:39:44;5.13;;;2.57;;
13408;SDS011;6775;49.574;11.170;2023-05-18T03:42:12;8.13;;;2.83;;
13408;SDS011;6775;49.574;11.170;2023-05-18T03:44:41;6.00;;;3.20;;
13408;SDS011;6775;49.574;11.170;2023-05-18T03:47:09;8.23;;;3.23;;
13408;SDS011;6775;49.574;11.170;2023-05-18T03:49:36;5.97;;;2.93;;
13408;SDS011;6775;49.574;11.170;2023-05-18T03:52:04;4.53;;;2.47;;
13408;SDS011;6775;49.574;11.170;2023-05-18T03:54:33;7.50;;;2.60;;
13408;SDS011;6775;49.574;11.170;2023-05-18T03:57:01;6.23;;;2.87;;
13408;SDS011;6775;49.574;11.170;2023-05-18T03:59:29;9.43;;;2.93;;
13408;SDS011;6775;49.574;11.170;2023-05-18T04:01:58;4.57;;;2.17;;
13408;SDS011;6775;49.574;11.170;2023-05-18T04:04:26;2.97;;;2.10;;
13408;SDS011;6775;49.574;11.170;2023-05-18T04:06:55;2.50;;;1.80;;
13408;SDS011;6775;49.574;11.170;2023-05-18T04:09:23;4.80;;;2.13;;
13408;SDS011;6775;49.574;11.170;2023-05-18T04:11:53;5.33;;;2.17;;
13408;SDS011;6775;49.574;11.170;2023-05-18T04:14:21;6.13;;;2.77;;
13408;SDS011;6775;49.574;11.170;2023-05-18T04:16:49;6.70;;;3.00;;
13408;SDS011;6775;49.574;11.170;2023-05-18T04:19:19;4.83;;;2.33;;
13408;SDS011;6775;49.574;11.170;2023-05-18T04:21:48;7.80;;;3.17;;
13408;SDS011;6775;49.574;11.170;2023-05-18T04:24:15;4.70;;;2.60;;
13408;SDS011;6775;49.574;11.170;2023-05-18T04:26:44;4.53;;;2.83;;
13408;SDS011;6775;49.574;11.170;2023-05-18T04:29:12;5.03;;;2.80;;
13408;SDS011;6775;49.574;11.170;2023-05-18T04:31:40;6.80;;;2.93;;
13408;SDS011;6775;49.574;11.170;2023-05-18T04:34:10;5.10;;;2.70;;
13408;SDS011;6775;49.574;11.170;2023-05-18T04:36:40;7.20;;;2.30;;
13408;SDS011;6775;49.574;11.170;2023-05-18T04:39:09;3.93;;;2.07;;
13408;SDS011;6775;49.574;11.170;2023-05-18T04:41:37;5.87;;;2.20;;
13408;SDS011;6775;49.574;11.170;2023-05-18T04:44:07;2.87;;;1.67;;
13408;SDS011;6775;49.574;11.170;2023-05-18T04:46:35;4.80;;;2.33;;
13408;SDS011;6775;49.574;11.170;2023-05-18T04:49:05;2.90;;;1.80;;
13408;SDS011;6775;49.574;11.170;2023-05-18T04:51:34;5.30;;;2.07;;
13408;SDS011;6775;49.574;11.170;2023-05-18T04:54:03;4.90;;;1.97;;
13408;SDS011;6775;49.574;11.170;2023-05-18T04:56:34;6.43;;;2.47;;
13408;SDS011;6775;49.574;11.170;2023-05-18T04:59:02;4.03;;;1.90;;
13408;SDS011;6775;49.574;11.170;2023-05-18T05:01:30;4.80;;;2.30;;
13408;SDS011;6775;49.574;11.170;2023-05-18T05:03:58;3.07;;;1.93;;
13408;SDS011;6775;49.574;11.170;2023-05-18T05:06:25;7.20;;;2.27;;
13408;SDS011;6775;49.574;11.170;2023-05-18T05:08:53;5.83;;;2.20;;
13408;SDS011;6775;49.574;11.170;2023-05-18T05:11:22;5.40;;;1.90;;
13408;SDS011;6775;49.574;11.170;2023-05-18T05:13:51;4.00;;;2.10;;
13408;SDS011;6775;49.574;11.170;2023-05-18T05:16:18;3.20;;;1.80;;
13408;SDS011;6775;49.574;11.170;2023-05-18T05:18:46;5.53;;;2.20;;
13408;SDS011;6775;49.574;11.170;2023-05-18T05:21:14;4.37;;;1.90;;
13408;SDS011;6775;49.574;11.170;2023-05-18T05:23:42;3.33;;;2.47;;
13408;SDS011;6775;49.574;11.170;2023-05-18T05:26:10;4.40;;;2.00;;
13408;SDS011;6775;49.574;11.170;2023-05-18T05:28:39;6.63;;;2.30;;
13408;SDS011;6775;49.574;11.170;2023-05-18T05:31:07;3.77;;;1.70;;
13408;SDS011;6775;49.574;11.170;2023-05-18T05:33:35;3.80;;;1.60;;
13408;SDS011;6775;49.574;11.170;2023-05-18T05:36:03;6.13;;;2.03;;
13408;SDS011;6775;49.574;11.170;2023-05-18T05:38:31;4.27;;;1.87;;
13408;SDS011;6775;49.574;11.170;2023-05-18T05:41:00;3.90;;;1.70;;
13408;SDS011;6775;49.574;11.170;2023-05-18T05:43:27;3.23;;;1.70;;
13408;SDS011;6775;49.574;11.170;2023-05-18T05:45:57;5.67;;;1.73;;
13408;SDS011;6775;49.574;11.170;2023-05-18T05:48:24;5.33;;;1.80;;
13408;SDS011;6775;49.574;11.170;2023-05-18T05:50:52;5.17;;;1.80;;
13408;SDS011;6775;49.574;11.170;2023-05-18T05:53:20;5.10;;;2.20;;
13408;SDS011;6775;49.574;11.170;2023-05-18T05:55:48;2.90;;;1.80;;
13408;SDS011;6775;49.574;11.170;2023-05-18T05:58:16;5.33;;;1.80;;
13408;SDS011;6775;49.574;11.170;2023-05-18T06:00:44;5.53;;;1.73;;
13408;SDS011;6775;49.574;11.170;2023-05-18T06:03:13;3.50;;;1.60;;
13408;SDS011;6775;49.574;11.170;2023-05-18T06:05:41;5.00;;;1.83;;
13408;SDS011;6775;49.574;11.170;2023-05-18T06:08:09;5.23;;;1.67;;
13408;SDS011;6775;49.574;11.170;2023-05-18T06:10:37;4.33;;;1.87;;
13408;SDS011;6775;49.574;11.170;2023-05-18T06:13:06;6.47;;;1.73;;
13408;SDS011;6775;49.574;11.170;2023-05-18T06:15:34;4.63;;;1.83;;
13408;SDS011;6775;49.574;11.170;2023-05-18T06:18:02;3.50;;;1.63;;
13408;SDS011;6775;49.574;11.170;2023-05-18T06:20:31;2.97;;;1.50;;
13408;SDS011;6775;49.574;11.170;2023-05-18T06:22:59;5.57;;;1.73;;
13408;SDS011;6775;49.574;11.170;2023-05-18T06:25:27;3.27;;;1.67;;
13408;SDS011;6775;49.574;11.170;2023-05-18T06:27:55;3.67;;;1.70;;
13408;SDS011;6775;49.574;11.170;2023-05-18T06:30:23;3.93;;;1.37;;
13408;SDS011;6775;49.574;11.170;2023-05-18T06:32:51;5.43;;;1.63;;
13408;SDS011;6775;49.574;11.170;2023-05-18T06:35:18;6.20;;;1.50;;
13408;SDS011;6775;49.574;11.170;2023-05-18T06:37:48;3.83;;;1.83;;
13408;SDS011;6775;49.574;11.170;2023-05-18T06:40:16;5.53;;;1.63;;
13408;SDS011;6775;49.574;11.170;2023-05-18T06:42:43;3.33;;;1.80;;
13408;SDS011;6775;49.574;11.170;2023-05-18T06:45:11;4.60;;;1.80;;
13408;SDS011;6775;49.574;11.170;2023-05-18T06:47:39;5.60;;;1.70;;
13408;SDS011;6775;49.574;11.170;2023-05-18T06:50:08;5.37;;;1.93;;
13408;SDS011;6775;49.574;11.170;2023-05-18T06:52:36;5.93;;;1.73;;
13408;SDS011;6775;49.574;11.170;2023-05-18T06:55:06;4.50;;;1.30;;
13408;SDS011;6775;49.574;11.170;2023-05-18T06:57:34;7.03;;;1.80;;
13408;SDS011;6775;49.574;11.170;2023-05-18T07:00:02;3.30;;;1.73;;
13408;SDS011;6775;49.574;11.170;2023-05-18T07:02:32;4.40;;;1.80;;
13408;SDS011;6775;49.574;11.170;2023-05-18T07:05:00;4.60;;;1.97;;
13408;SDS011;6775;49.574;11.170;2023-05-18T07:07:30;5.40;;;1.60;;
13408;SDS011;6775;49.574;11.170;2023-05-18T07:09:58;7.80;;;1.87;;
13408;SDS011;6775;49.574;11.170;2023-05-18T07:12:27;3.00;;;1.63;;
13408;SDS011;6775;49.574;11.170;2023-05-18T07:14:55;8.87;;;1.90;;
13408;SDS011;6775;49.574;11.170;2023-05-18T07:17:23;7.43;;;1.93;;
13408;SDS011;6775;49.574;11.170;2023-05-18T07:19:51;5.57;;;1.60;;
13408;SDS011;6775;49.574;11.170;2023-05-18T07:22:19;4.33;;;1.60;;
13408;SDS011;6775;49.574;11.170;2023-05-18T07:24:46;2.90;;;1.50;;
13408;SDS011;6775;49.574;11.170;2023-05-18T07:27:14;3.73;;;1.63;;
13408;SDS011;6775;49.574;11.170;2023-05-18T07:29:43;2.27;;;1.40;;
13408;SDS011;6775;49.574;11.170;2023-05-18T07:32:11;3.73;;;1.77;;
13408;SDS011;6775;49.574;11.170;2023-05-18T07:34:39;5.70;;;1.60;;
13408;SDS011;6775;49.574;11.170;2023-05-18T07:37:08;6.83;;;2.37;;
13408;SDS011;6775;49.574;11.170;2023-05-18T07:39:36;4.60;;;1.67;;
13408;SDS011;6775;49.574;11.170;2023-05-18T07:42:04;3.17;;;1.13;;
13408;SDS011;6775;49.574;11.170;2023-05-18T07:44:32;5.23;;;1.70;;
13408;SDS011;6775;49.574;11.170;2023-05-18T07:47:01;4.70;;;1.50;;
13408;SDS011;6775;49.574;11.170;2023-05-18T07:49:29;3.60;;;1.33;;
13408;SDS011;6775;49.574;11.170;2023-05-18T07:51:57;6.57;;;1.87;;
13408;SDS011;6775;49.574;11.170;2023-05-18T07:54:25;3.03;;;1.57;;
13408;SDS011;6775;49.574;11.170;2023-05-18T07:56:53;5.27;;;1.90;;
13408;SDS011;6775;49.574;11.170;2023-05-18T07:59:24;3.00;;;1.80;;
13408;SDS011;6775;49.574;11.170;2023-05-18T08:01:52;5.37;;;1.83;;
13408;SDS011;6775;49.574;11.170;2023-05-18T08:04:22;4.53;;;1.53;;
13408;SDS011;6775;49.574;11.170;2023-05-18T08:06:50;2.70;;;1.20;;
13408;SDS011;6775;49.574;11.170;2023-05-18T08:09:19;3.10;;;1.67;;
13408;SDS011;6775;49.574;11.170;2023-05-18T08:11:48;2.33;;;1.30;;
13408;SDS011;6775;49.574;11.170;2023-05-18T08:14:17;4.33;;;1.80;;
13408;SDS011;6775;49.574;11.170;2023-05-18T08:16:45;5.23;;;1.90;;
13408;SDS011;6775;49.574;11.170;2023-05-18T08:19:13;5.30;;;1.90;;
13408;SDS011;6775;49.574;11.170;2023-05-18T08:21:42;3.73;;;1.50;;
13408;SDS011;6775;49.574;11.170;2023-05-18T08:24:11;3.63;;;1.40;;
13408;SDS011;6775;49.574;11.170;2023-05-18T08:26:39;6.63;;;1.57;;
13408;SDS011;6775;49.574;11.170;2023-05-18T08:29:07;6.33;;;1.50;;
13408;SDS011;6775;49.574;11.170;2023-05-18T08:31:35;5.73;;;1.57;;
13408;SDS011;6775;49.574;11.170;2023-05-18T08:34:04;3.13;;;1.40;;
13408;SDS011;6775;49.574;11.170;2023-05-18T08:36:33;3.87;;;1.27;;
13408;SDS011;6775;49.574;11.170;2023-05-18T08:39:03;3.10;;;1.50;;
13408;SDS011;6775;49.574;11.170;2023-05-18T08:41:31;5.20;;;1.70;;
13408;SDS011;6775;49.574;11.170;2023-05-18T08:44:04;3.13;;;1.60;;
13408;SDS011;6775;49.574;11.170;2023-05-18T08:46:38;5.07;;;1.83;;
13408;SDS011;6775;49.574;11.170;2023-05-18T08:49:08;4.00;;;1.60;;
13408;SDS011;6775;49.574;11.170;2023-05-18T08:51:36;4.77;;;1.83;;
13408;SDS011;6775;49.574;11.170;2023-05-18T08:54:07;3.97;;;1.40;;
13408;SDS011;6775;49.574;11.170;2023-05-18T08:56:37;5.77;;;1.70;;
13408;SDS011;6775;49.574;11.170;2023-05-18T08:59:06;4.00;;;1.30;;
13408;SDS011;6775;49.574;11.170;2023-05-18T09:01:35;5.77;;;1.60;;
13408;SDS011;6775;49.574;11.170;2023-05-18T09:04:03;4.60;;;1.70;;
13408;SDS011;6775;49.574;11.170;2023-05-18T09:06:32;3.27;;;1.57;;
13408;SDS011;6775;49.574;11.170;2023-05-18T09:09:01;4.57;;;1.40;;
13408;SDS011;6775;49.574;11.170;2023-05-18T09:11:32;3.77;;;1.50;;
13408;SDS011;6775;49.574;11.170;2023-05-18T09:14:01;4.37;;;1.60;;
13408;SDS011;6775;49.574;11.170;2023-05-18T09:16:29;3.87;;;1.37;;
13408;SDS011;6775;49.574;11.170;2023-05-18T09:18:57;6.13;;;1.73;;
13408;SDS011;6775;49.574;11.170;2023-05-18T09:21:25;3.67;;;1.40;;
13408;SDS011;6775;49.574;11.170;2023-05-18T09:23:53;6.67;;;1.33;;
13408;SDS011;6775;49.574;11.170;2023-05-18T09:26:21;5.27;;;1.87;;
13408;SDS011;6775;49.574;11.170;2023-05-18T09:28:51;3.77;;;1.80;;
13408;SDS011;6775;49.574;11.170;2023-05-18T09:31:21;5.20;;;1.80;;
13408;SDS011;6775;49.574;11.170;2023-05-18T09:33:51;6.40;;;1.43;;
13408;SDS011;6775;49.574;11.170;2023-05-18T09:36:23;2.80;;;1.40;;
13408;SDS011;6775;49.574;11.170;2023-05-18T09:38:53;3.33;;;1.57;;
13408;SDS011;6775;49.574;11.170;2023-05-18T09:41:24;3.00;;;1.20;;
13408;SDS011;6775;49.574;11.170;2023-05-18T09:43:54;4.80;;;1.40;;
13408;SDS011;6775;49.574;11.170;2023-05-18T09:46:22;3.37;;;1.60;;
13408;SDS011;6775;49.574;11.170;2023-05-18T09:48:50;3.43;;;1.30;;
13408;SDS011;6775;49.574;11.170;2023-05-18T09:51:21;3.50;;;1.30;;
13408;SDS011;6775;49.574;11.170;2023-05-18T09:53:52;6.77;;;1.67;;
13408;SDS011;6775;49.574;11.170;2023-05-18T09:56:21;3.60;;;1.83;;
13408;SDS011;6775;49.574;11.170;2023-05-18T09:58:49;4.87;;;2.00;;
13408;SDS011;6775;49.574;11.170;2023-05-18T10:01:18;4.00;;;1.53;;
13408;SDS011;6775;49.574;11.170;2023-05-18T10:03:46;4.00;;;1.80;;
13408;SDS011;6775;49.574;11.170;2023-05-18T10:06:15;3.60;;;1.40;;
13408;SDS011;6775;49.574;11.170;2023-05-18T10:08:45;2.37;;;1.50;;
13408;SDS011;6775;49.574;11.170;2023-05-18T10:11:14;5.63;;;2.00;;
13408;SDS011;6775;49.574;11.170;2023-05-18T10:13:43;3.63;;;1.60;;
13408;SDS011;6775;49.574;11.170;2023-05-18T10:16:12;3.83;;;1.57;;
13408;SDS011;6775;49.574;11.170;2023-05-18T10:18:43;5.43;;;1.93;;
13408;SDS011;6775;49.574;11.170;2023-05-18T10:21:12;6.60;;;1.90;;
13408;SDS011;6775;49.574;11.170;2023-05-18T10:23:42;2.20;;;1.37;;
13408;SDS011;6775;49.574;11.170;2023-05-18T10:26:14;4.10;;;1.80;;
13408;SDS011;6775;49.574;11.170;2023-05-18T10:28:49;2.30;;;1.50;;
13408;SDS011;6775;49.574;11.170;2023-05-18T10:31:19;4.00;;;1.50;;
13408;SDS011;6775;49.574;11.170;2023-05-18T10:33:50;6.40;;;1.73;;
13408;SDS011;6775;49.574;11.170;2023-05-18T10:36:19;4.83;;;1.60;;
13408;SDS011;6775;49.574;11.170;2023-05-18T10:38:50;4.37;;;1.70;;
13408;SDS011;6775;49.574;11.170;2023-05-18T10:41:19;3.20;;;1.50;;
13408;SDS011;6775;49.574;11.170;2023-05-18T10:43:47;5.03;;;1.30;;
13408;SDS011;6775;49.574;11.170;2023-05-18T10:46:16;3.43;;;1.27;;
13408;SDS011;6775;49.574;11.170;2023-05-18T10:48:46;2.33;;;1.23;;
13408;SDS011;6775;49.574;11.170;2023-05-18T10:51:17;5.50;;;1.53;;
13408;SDS011;6775;49.574;11.170;2023-05-18T10:53:47;4.90;;;1.53;;
13408;SDS011;6775;49.574;11.170;2023-05-18T10:56:17;4.83;;;1.57;;
13408;SDS011;6775;49.574;11.170;2023-05-18T10:58:45;3.13;;;1.60;;
13408;SDS011;6775;49.574;11.170;2023-05-18T11:01:13;4.97;;;1.40;;
13408;SDS011;6775;49.574;11.170;2023-05-18T11:03:42;4.73;;;1.50;;
13408;SDS011;6775;49.574;11.170;2023-05-18T11:06:11;5.17;;;1.63;;
13408;SDS011;6775;49.574;11.170;2023-05-18T11:08:47;4.33;;;1.63;;
13408;SDS011;6775;49.574;11.170;2023-05-18T11:11:16;6.13;;;1.77;;
13408;SDS011;6775;49.574;11.170;2023-05-18T11:13:47;5.63;;;2.23;;
13408;SDS011;6775;49.574;11.170;2023-05-18T11:16:15;5.37;;;1.60;;
13408;SDS011;6775;49.574;11.170;2023-05-18T11:18:45;5.57;;;1.97;;
13408;SDS011;6775;49.574;11.170;2023-05-18T11:21:17;3.37;;;1.60;;
13408;SDS011;6775;49.574;11.170;2023-05-18T11:26:41;4.63;;;1.40;;
13408;SDS011;6775;49.574;11.170;2023-05-18T11:29:17;2.10;;;1.40;;
13408;SDS011;6775;49.574;11.170;2023-05-18T11:31:47;3.10;;;1.50;;
13408;SDS011;6775;49.574;11.170;2023-05-18T11:37:05;4.40;;;1.60;;
13408;SDS011;6775;49.574;11.170;2023-05-18T11:39:36;4.73;;;1.60;;
13408;SDS011;6775;49.574;11.170;2023-05-18T11:42:17;4.23;;;1.73;;
13408;SDS011;6775;49.574;11.170;2023-05-18T11:44:50;4.03;;;1.33;;
13408;SDS011;6775;49.574;11.170;2023-05-18T11:47:19;4.73;;;1.73;;
13408;SDS011;6775;49.574;11.170;2023-05-18T11:49:47;4.17;;;1.30;;
13408;SDS011;6775;49.574;11.170;2023-05-18T11:52:18;2.57;;;1.40;;
13408;SDS011;6775;49.574;11.170;2023-05-18T11:54:49;3.33;;;1.20;;
13408;SDS011;6775;49.574;11.170;2023-05-18T11:57:19;3.67;;;1.50;;
13408;SDS011;6775;49.574;11.170;2023-05-18T11:59:53;3.23;;;1.50;;
13408;SDS011;6775;49.574;11.170;2023-05-18T12:02:23;7.57;;;1.40;;
13408;SDS011;6775;49.574;11.170;2023-05-18T12:04:52;4.47;;;1.60;;
13408;SDS011;6775;49.574;11.170;2023-05-18T12:07:22;3.07;;;1.53;;
13408;SDS011;6775;49.574;11.170;2023-05-18T12:09:52;4.07;;;1.13;;
13408;SDS011;6775;49.574;11.170;2023-05-18T12:12:24;2.87;;;1.63;;
13408;SDS011;6775;49.574;11.170;2023-05-18T12:14:54;4.30;;;1.37;;
13408;SDS011;6775;49.574;11.170;2023-05-18T12:17:23;3.87;;;1.70;;
13408;SDS011;6775;49.574;11.170;2023-05-18T12:20:04;5.87;;;1.60;;
13408;SDS011;6775;49.574;11.170;2023-05-18T12:22:33;5.60;;;1.70;;
13408;SDS011;6775;49.574;11.170;2023-05-18T12:25:04;3.43;;;1.60;;
13408;SDS011;6775;49.574;11.170;2023-05-18T12:27:35;3.60;;;1.43;;
13408;SDS011;6775;49.574;11.170;2023-05-18T12:30:05;3.67;;;1.37;;
13408;SDS011;6775;49.574;11.170;2023-05-18T12:32:37;3.30;;;1.33;;
13408;SDS011;6775;49.574;11.170;2023-05-18T12:35:05;5.80;;;1.73;;
13408;SDS011;6775;49.574;11.170;2023-05-18T12:37:40;3.73;;;1.53;;
13408;SDS011;6775;49.574;11.170;2023-05-18T12:40:13;3.40;;;1.90;;
13408;SDS011;6775;49.574;11.170;2023-05-18T12:42:49;2.93;;;1.37;;
13408;SDS011;6775;49.574;11.170;2023-05-18T12:45:19;3.47;;;1.60;;
13408;SDS011;6775;49.574;11.170;2023-05-18T12:47:49;4.33;;;1.80;;
13408;SDS011;6775;49.574;11.170;2023-05-18T12:50:20;5.63;;;1.80;;
13408;SDS011;6775;49.574;11.170;2023-05-18T12:52:47;3.67;;;1.43;;
13408;SDS011;6775;49.574;11.170;2023-05-18T12:55:18;3.63;;;1.40;;
13408;SDS011;6775;49.574;11.170;2023-05-18T12:57:56;4.13;;;1.40;;
13408;SDS011;6775;49.574;11.170;2023-05-18T13:00:25;5.50;;;1.63;;
13408;SDS011;6775;49.574;11.170;2023-05-18T13:02:53;3.70;;;1.63;;
13408;SDS011;6775;49.574;11.170;2023-05-18T13:05:31;3.80;;;1.43;;
13408;SDS011;6775;49.574;11.170;2023-05-18T13:07:59;3.23;;;1.83;;
13408;SDS011;6775;49.574;11.170;2023-05-18T13:10:29;2.90;;;1.60;;
13408;SDS011;6775;49.574;11.170;2023-05-18T13:12:58;5.17;;;1.70;;
13408;SDS011;6775;49.574;11.170;2023-05-18T13:15:31;3.90;;;1.47;;
13408;SDS011;6775;49.574;11.170;2023-05-18T13:18:01;5.77;;;1.80;;
13408;SDS011;6775;49.574;11.170;2023-05-18T13:20:31;6.83;;;2.07;;
13408;SDS011;6775;49.574;11.170;2023-05-18T13:23:02;5.30;;;2.00;;
13408;SDS011;6775;49.574;11.170;2023-05-18T13:25:33;3.30;;;1.40;;
13408;SDS011;6775;49.574;11.170;2023-05-18T13:28:01;4.23;;;1.77;;
13408;SDS011;6775;49.574;11.170;2023-05-18T13:30:29;3.20;;;1.60;;
13408;SDS011;6775;49.574;11.170;2023-05-18T13:32:58;3.47;;;1.77;;
13408;SDS011;6775;49.574;11.170;2023-05-18T13:35:26;4.80;;;1.90;;
13408;SDS011;6775;49.574;11.170;2023-05-18T13:37:55;3.80;;;1.83;;
13408;SDS011;6775;49.574;11.170;2023-05-18T13:40:23;3.43;;;1.43;;
13408;SDS011;6775;49.574;11.170;2023-05-18T13:42:52;4.27;;;1.73;;
13408;SDS011;6775;49.574;11.170;2023-05-18T13:45:20;4.53;;;1.53;;
13408;SDS011;6775;49.574;11.170;2023-05-18T13:47:48;2.23;;;1.40;;
13408;SDS011;6775;49.574;11.170;2023-05-18T13:50:18;5.00;;;1.90;;
13408;SDS011;6775;49.574;11.170;2023-05-18T13:52:48;7.63;;;2.00;;
13408;SDS011;6775;49.574;11.170;2023-05-18T13:55:16;2.77;;;1.30;;
13408;SDS011;6775;49.574;11.170;2023-05-18T13:57:44;4.53;;;1.70;;
13408;SDS011;6775;49.574;11.170;2023-05-18T14:00:14;3.13;;;1.40;;
13408;SDS011;6775;49.574;11.170;2023-05-18T14:02:42;3.23;;;1.40;;
13408;SDS011;6775;49.574;11.170;2023-05-18T14:05:11;3.43;;;1.70;;
13408;SDS011;6775;49.574;11.170;2023-05-18T14:07:40;4.73;;;1.67;;
13408;SDS011;6775;49.574;11.170;2023-05-18T14:10:09;4.67;;;1.57;;
13408;SDS011;6775;49.574;11.170;2023-05-18T14:12:37;5.10;;;1.87;;
13408;SDS011;6775;49.574;11.170;2023-05-18T14:15:07;2.40;;;1.23;;
13408;SDS011;6775;49.574;11.170;2023-05-18T14:17:37;3.03;;;1.57;;
13408;SDS011;6775;49.574;11.170;2023-05-18T14:20:06;3.63;;;1.40;;
13408;SDS011;6775;49.574;11.170;2023-05-18T14:22:35;3.00;;;1.53;;
13408;SDS011;6775;49.574;11.170;2023-05-18T14:25:03;4.20;;;1.47;;
13408;SDS011;6775;49.574;11.170;2023-05-18T14:27:31;3.50;;;1.53;;
13408;SDS011;6775;49.574;11.170;2023-05-18T14:29:59;3.90;;;1.43;;
13408;SDS011;6775;49.574;11.170;2023-05-18T14:32:27;2.97;;;1.30;;
13408;SDS011;6775;49.574;11.170;2023-05-18T14:34:56;3.30;;;1.50;;
13408;SDS011;6775;49.574;11.170;2023-05-18T14:37:24;3.20;;;1.33;;
13408;SDS011;6775;49.574;11.170;2023-05-18T14:39:52;3.93;;;1.30;;
13408;SDS011;6775;49.574;11.170;2023-05-18T14:42:20;3.77;;;1.27;;
13408;SDS011;6775;49.574;11.170;2023-05-18T14:44:48;2.80;;;1.30;;
13408;SDS011;6775;49.574;11.170;2023-05-18T14:47:15;3.77;;;1.17;;
13408;SDS011;6775;49.574;11.170;2023-05-18T14:49:44;4.73;;;1.47;;
13408;SDS011;6775;49.574;11.170;2023-05-18T14:52:13;5.20;;;1.77;;
13408;SDS011;6775;49.574;11.170;2023-05-18T14:54:40;6.13;;;1.30;;
13408;SDS011;6775;49.574;11.170;2023-05-18T14:57:08;3.33;;;1.37;;
13408;SDS011;6775;49.574;11.170;2023-05-18T14:59:36;2.87;;;1.40;;
13408;SDS011;6775;49.574;11.170;2023-05-18T15:02:04;2.43;;;1.43;;
13408;SDS011;6775;49.574;11.170;2023-05-18T15:04:33;3.73;;;1.43;;